Flying Cat 3 — SX6671 — position and weather

sailwx.info

Track history (hours):
 
Tides and Currents Weather Stations Pressure Air Temp Water Temp Dewpoint Dewpoint Depression Visibility Wind Speed Wind Dir Waves Ship Positions

Flying Cat 3

Last reported at 2016-Jul-01 04:34 UTC. Time now 2016-Jul-01 04:40 UTC.
Position N 37°57' E 023°39'.

Length 48 m; draft 1.5 m.

Type: High speed craft. MMSI: 239552000.

Date/timePositionNaut miles runAvg speedWind from/ knotsBaromVisibWave heightAir tempDewpointWater temp
2016-Jul-01 04:34N 37°57' E 023°39'0 0.0
2016-Jul-01 03:33N 37°57' E 023°39'0 0.0
2016-Jul-01 02:33N 37°57' E 023°39'0 0.0
2016-Jul-01 01:34N 37°57' E 023°39'0 0.0
2016-Jul-01 00:34N 37°57' E 023°39'0 0.0
2016-Jun-30 23:33N 37°57' E 023°39'0 0.0
2016-Jun-30 22:33N 37°57' E 023°39'0 0.0
2016-Jun-30 21:34N 37°57' E 023°39'0 0.0
2016-Jun-30 20:34N 37°57' E 023°39'0 0.0
2016-Jun-30 19:34N 37°57' E 023°39'0 0.0
2016-Jun-30 18:34N 37°57' E 023°39'0 0.0
2016-Jun-30 17:34N 37°57' E 023°39'0 0.0
2016-Jun-30 16:34N 37°57' E 023°39'0 0.0
2016-Jun-30 15:34N 37°57' E 023°39'2827.5
2016-Jun-30 14:33N 37°30' E 023°26'9 3.8
2016-Jun-30 12:10N 37°21' E 023°26'813.2
2016-Jun-30 11:33N 37°30' E 023°28'2121.3
2016-Jun-30 10:33N 37°50' E 023°36'7 7.1
2016-Jun-30 09:33N 37°57' E 023°39'2424.3
2016-Jun-30 08:33N 37°33' E 023°34'6 2.7
2016-Jun-30 06:27N 37°27' E 023°33'3033.5
2016-Jun-30 05:33N 37°57' E 023°39'0 0.0
2016-Jun-30 04:34N 37°57' E 023°39'0 0.0
2016-Jun-30 03:33N 37°57' E 023°39'0 0.0
2016-Jun-30 02:33N 37°57' E 023°39'0 0.0
2016-Jun-30 01:33N 37°57' E 023°39'0 0.0
2016-Jun-30 00:33N 37°57' E 023°39'0 0.0
2016-Jun-29 23:33N 37°57' E 023°39'0 0.0
2016-Jun-29 22:33N 37°57' E 023°39'0 0.0
2016-Jun-29 21:33N 37°57' E 023°39'0 0.0
2016-Jun-29 20:33N 37°57' E 023°39'0 0.0
2016-Jun-29 19:33N 37°57' E 023°39'0 0.0
2016-Jun-29 18:33N 37°57' E 023°39'0 0.0
2016-Jun-29 17:33N 37°57' E 023°39'0 0.0
2016-Jun-29 16:33N 37°57' E 023°39'10 9.7
2016-Jun-29 15:33N 37°47' E 023°35'2423.1
2016-Jun-29 14:32N 37°24' E 023°31'5 2.1
2016-Jun-29 12:12N 37°22' E 023°25'812.8
2016-Jun-29 11:33N 37°29' E 023°29'2121.1
2016-Jun-29 10:34N 37°50' E 023°35'7 7.3
2016-Jun-29 09:33N 37°57' E 023°39'2926.3
2016-Jun-29 08:27N 37°28' E 023°33'8 3.5
2016-Jun-29 06:13N 37°35' E 023°34'2232.7
2016-Jun-29 05:34N 37°57' E 023°38'0 0.1
2016-Jun-29 04:31N 37°57' E 023°39'0 0.0
2016-Jun-29 03:28N 37°57' E 023°39'0 0.0
2016-Jun-29 02:28N 37°57' E 023°39'0 0.0
2016-Jun-29 01:31N 37°57' E 023°39'0 0.0
2016-Jun-29 00:31N 37°57' E 023°39'0 0.0
2016-Jun-28 23:31N 37°57' E 023°39'0 0.0
2016-Jun-28 22:31N 37°57' E 023°39'0 0.0
2016-Jun-28 21:28N 37°57' E 023°39'0 0.0
2016-Jun-28 20:31N 37°57' E 023°39'0 0.0
2016-Jun-28 19:31N 37°57' E 023°39'0 0.0
2016-Jun-28 18:31N 37°57' E 023°39'0 0.0
2016-Jun-28 17:31N 37°57' E 023°39'0 0.0
2016-Jun-28 16:31N 37°57' E 023°39'0 0.0
2016-Jun-28 15:33N 37°57' E 023°39'2827.2
2016-Jun-28 14:31N 37°30' E 023°27'8 3.6
2016-Jun-28 12:12N 37°22' E 023°25'812.8
2016-Jun-28 11:33N 37°30' E 023°28'2221.6
2016-Jun-28 10:34N 37°50' E 023°36'7 6.6
2016-Jun-28 09:34N 37°57' E 023°39'2625.7
2016-Jun-28 08:33N 37°31' E 023°34'4 1.6
2016-Jun-28 06:14N 37°35' E 023°34'2212.9
2016-Jun-28 04:30N 37°57' E 023°39'0 0.0
2016-Jun-27 23:06N 37°57' E 023°39'0 0.0
2016-Jun-27 22:27N 37°57' E 023°39'0 0.0
2016-Jun-27 21:33N 37°57' E 023°39'0 0.0
2016-Jun-27 20:33N 37°57' E 023°39'0 0.0
2016-Jun-27 19:33N 37°57' E 023°39'0 0.0
2016-Jun-27 18:33N 37°57' E 023°39'0 0.0
2016-Jun-27 17:33N 37°57' E 023°39'0 0.0
2016-Jun-27 16:30N 37°57' E 023°39'0 0.0
2016-Jun-27 15:34N 37°57' E 023°39'2827.6
2016-Jun-27 14:32N 37°30' E 023°27'9 3.6
2016-Jun-27 12:12N 37°22' E 023°25'812.4
2016-Jun-27 11:33N 37°29' E 023°30'2222.0
2016-Jun-27 10:33N 37°50' E 023°36'7 6.7
2016-Jun-27 09:33N 37°57' E 023°39'2525.2
2016-Jun-27 08:33N 37°32' E 023°34'3 1.2
2016-Jun-27 06:14N 37°35' E 023°34'2233.0
2016-Jun-27 05:33N 37°57' E 023°38'0 0.2
2016-Jun-27 04:27N 37°57' E 023°39'0 0.0
2016-Jun-27 03:33N 37°57' E 023°39'0 0.0
2016-Jun-27 02:33N 37°57' E 023°39'0 0.0
2016-Jun-27 01:33N 37°57' E 023°39'0 0.0
2016-Jun-27 00:33N 37°57' E 023°39'0 0.0
2016-Jun-26 23:33N 37°57' E 023°39'0 0.0
2016-Jun-26 22:33N 37°57' E 023°39'0 0.0
2016-Jun-26 21:33N 37°57' E 023°39'0 0.0
2016-Jun-26 20:33N 37°57' E 023°39'0 0.0
2016-Jun-26 19:33N 37°57' E 023°39'6 6.5
2016-Jun-26 18:33N 37°51' E 023°35'3029.4
2016-Jun-26 17:32N 37°21' E 023°28'2010.1
2016-Jun-26 15:33N 37°40' E 023°35'1716.5
2016-Jun-26 14:33N 37°57' E 023°39'2623.3
2016-Jun-26 13:26N 37°32' E 023°26'5 1.7
2016-Jun-26 10:19N 37°29' E 023°30'1316.9
2016-Jun-26 09:33N 37°42' E 023°32'1615.7
2016-Jun-26 08:32N 37°57' E 023°39'0 0.0
2016-Jun-26 07:32N 37°57' E 023°39'0 0.0
2016-Jun-26 06:32N 37°57' E 023°39'0 0.0
2016-Jun-26 05:32N 37°57' E 023°39'0 0.0
2016-Jun-26 04:32N 37°57' E 023°39'0 0.0
2016-Jun-26 03:32N 37°57' E 023°39'0 0.0
2016-Jun-26 02:32N 37°57' E 023°39'0 0.0
2016-Jun-26 01:32N 37°57' E 023°39'0 0.0
2016-Jun-26 00:32N 37°57' E 023°39'0 0.0
2016-Jun-25 23:32N 37°57' E 023°39'0 0.0
2016-Jun-25 22:32N 37°57' E 023°39'0 0.0
2016-Jun-25 21:32N 37°57' E 023°39'0 0.0
2016-Jun-25 20:32N 37°57' E 023°39'0 0.0
2016-Jun-25 19:32N 37°57' E 023°39'0 0.0
2016-Jun-25 18:32N 37°57' E 023°39'0 0.0
2016-Jun-25 17:29N 37°57' E 023°39'0 0.0
2016-Jun-25 16:29N 37°57' E 023°39'0 0.0
2016-Jun-25 15:33N 37°57' E 023°39'2827.7
2016-Jun-25 14:33N 37°30' E 023°27'7 2.2
2016-Jun-25 11:12N 37°35' E 023°33'2233.8
2016-Jun-25 10:33N 37°57' E 023°38'0 0.2
2016-Jun-25 09:33N 37°57' E 023°39'2925.9
2016-Jun-25 08:27N 37°28' E 023°33'8 3.5
2016-Jun-25 06:10N 37°36' E 023°33'2134.0
2016-Jun-25 05:33N 37°56' E 023°38'0 0.4
2016-Jun-25 04:33N 37°57' E 023°39'0 0.0
2016-Jun-25 03:33N 37°57' E 023°39'0 0.0
2016-Jun-25 02:30N 37°57' E 023°39'0 0.0
2016-Jun-25 01:33N 37°57' E 023°39'0 0.0
2016-Jun-25 00:30N 37°57' E 023°39'0 0.0
2016-Jun-24 23:33N 37°57' E 023°39'0 0.0
2016-Jun-24 22:30N 37°57' E 023°39'0 0.0
2016-Jun-24 21:30N 37°57' E 023°39'0 0.0
2016-Jun-24 20:33N 37°57' E 023°39'0 0.0
2016-Jun-24 19:30N 37°57' E 023°39'8 9.0
2016-Jun-24 18:34N 37°48' E 023°36'13 3.9
2016-Jun-24 15:12N 37°36' E 023°33'2133.4
2016-Jun-24 14:33N 37°57' E 023°38'0 0.3
2016-Jun-24 13:33N 37°57' E 023°39'2827.3
2016-Jun-24 12:32N 37°30' E 023°27'2 1.9
2016-Jun-24 11:18N 37°29' E 023°29'1418.3
2016-Jun-24 10:33N 37°43' E 023°33'1514.7
2016-Jun-24 09:33N 37°57' E 023°39'0 0.0
2016-Jun-24 08:32N 37°57' E 023°39'0 0.0
2016-Jun-24 07:29N 37°57' E 023°39'0 0.0
2016-Jun-24 04:32N 37°57' E 023°39'0 0.0
2016-Jun-24 03:32N 37°57' E 023°39'0 0.0
2016-Jun-24 02:20N 37°57' E 023°39'0 0.0
2016-Jun-24 01:32N 37°57' E 023°39'0 0.0
2016-Jun-24 00:32N 37°57' E 023°39'0 0.0
2016-Jun-23 23:32N 37°57' E 023°39'0 0.0
2016-Jun-23 22:32N 37°57' E 023°39'0 0.0
2016-Jun-23 21:32N 37°57' E 023°39'0 0.0
2016-Jun-23 20:29N 37°57' E 023°39'0 0.0
2016-Jun-23 19:32N 37°57' E 023°39'0 0.0
2016-Jun-23 18:32N 37°57' E 023°39'0 0.0
2016-Jun-23 17:32N 37°57' E 023°39'0 0.0
2016-Jun-23 16:32N 37°57' E 023°39'0 0.0
2016-Jun-23 15:33N 37°57' E 023°39'2827.5
2016-Jun-23 14:33N 37°30' E 023°26'9 3.8
2016-Jun-23 12:09N 37°21' E 023°27'813.8
2016-Jun-23 11:33N 37°30' E 023°28'2121.5
2016-Jun-23 10:34N 37°50' E 023°36'7 6.8
2016-Jun-23 09:33N 37°57' E 023°39'3126.9
2016-Jun-23 08:25N 37°26' E 023°33'3110.7
2016-Jun-23 05:34N 37°57' E 023°39'0 0.0
2016-Jun-23 04:33N 37°57' E 023°39'0 0.0
2016-Jun-23 03:33N 37°57' E 023°39'0 0.0
2016-Jun-23 02:33N 37°57' E 023°39'0 0.0
2016-Jun-23 01:33N 37°57' E 023°39'0 0.0
2016-Jun-23 00:27N 37°57' E 023°39'0 0.0
2016-Jun-22 23:33N 37°57' E 023°39'0 0.0
2016-Jun-22 22:33N 37°57' E 023°39'0 0.0
2016-Jun-22 21:30N 37°57' E 023°39'0 0.0
2016-Jun-22 20:30N 37°57' E 023°39'0 0.0
2016-Jun-22 19:33N 37°57' E 023°39'0 0.0
2016-Jun-22 18:33N 37°57' E 023°39'0 0.0
2016-Jun-22 17:33N 37°57' E 023°39'0 0.0
2016-Jun-22 16:33N 37°57' E 023°39'1 0.7
2016-Jun-22 15:33N 37°56' E 023°38'2827.7
2016-Jun-22 14:33N 37°30' E 023°27'1111.0
2016-Jun-22 13:32N 37°20' E 023°22'3 2.7
2016-Jun-22 12:15N 37°23' E 023°24'811.2
2016-Jun-22 11:33N 37°29' E 023°29'2121.1
2016-Jun-22 10:33N 37°50' E 023°35'7 7.3
2016-Jun-22 09:33N 37°57' E 023°39'2926.9
2016-Jun-22 08:29N 37°28' E 023°33'13 9.3
2016-Jun-22 07:04N 37°19' E 023°21'2022.7
2016-Jun-22 06:09N 37°37' E 023°34'2032.9
2016-Jun-22 05:34N 37°57' E 023°38'0 0.3
2016-Jun-22 04:33N 37°57' E 023°39'0 0.0
2016-Jun-22 03:32N 37°57' E 023°39'0 0.0
2016-Jun-22 02:32N 37°57' E 023°39'0 0.0
2016-Jun-22 01:32N 37°57' E 023°39'0 0.0
2016-Jun-22 00:29N 37°57' E 023°39'0 0.0
2016-Jun-21 23:32N 37°57' E 023°39'0 0.0
2016-Jun-21 22:32N 37°57' E 023°39'0 0.0
2016-Jun-21 21:26N 37°57' E 023°39'0 0.0
2016-Jun-21 20:32N 37°57' E 023°39'0 0.0
2016-Jun-21 19:32N 37°57' E 023°39'0 0.0
2016-Jun-21 18:32N 37°57' E 023°39'0 0.0
2016-Jun-21 17:32N 37°57' E 023°39'0 0.0
2016-Jun-21 16:32N 37°57' E 023°39'0 0.0
2016-Jun-21 15:33N 37°57' E 023°39'2827.2
2016-Jun-21 14:31N 37°30' E 023°27'8 3.6
2016-Jun-21 12:10N 37°22' E 023°26'813.3
2016-Jun-21 11:33N 37°29' E 023°29'2522.4
2016-Jun-21 10:28N 37°53' E 023°36'4 3.8
2016-Jun-21 09:33N 37°56' E 023°38'18 5.2
2016-Jun-21 06:06N 37°39' E 023°33'  
Track history (hours):
 
Tides and Currents Weather Stations Pressure Air Temp Water Temp Dewpoint Dewpoint Depression Visibility Wind Speed Wind Dir Waves Ship Positions

Flying Cat 3

Last reported at 2016-Jul-01 04:34 UTC. Time now 2016-Jul-01 04:40 UTC.
Position N 37°57' E 023°39'.

Length 48 m; draft 1.5 m.

Type: High speed craft. MMSI: 239552000.

Date/timePositionNaut miles runAvg speedWind from/ knotsBaromVisibWave heightAir tempDewpointWater temp
2016-Jul-01 04:34N 37°57' E 023°39'0 0.0
2016-Jul-01 03:33N 37°57' E 023°39'0 0.0
2016-Jul-01 02:33N 37°57' E 023°39'0 0.0
2016-Jul-01 01:34N 37°57' E 023°39'0 0.0
2016-Jul-01 00:34N 37°57' E 023°39'0 0.0
2016-Jun-30 23:33N 37°57' E 023°39'0 0.0
2016-Jun-30 22:33N 37°57' E 023°39'0 0.0
2016-Jun-30 21:34N 37°57' E 023°39'0 0.0
2016-Jun-30 20:34N 37°57' E 023°39'0 0.0
2016-Jun-30 19:34N 37°57' E 023°39'0 0.0
2016-Jun-30 18:34N 37°57' E 023°39'0 0.0
2016-Jun-30 17:34N 37°57' E 023°39'0 0.0
2016-Jun-30 16:34N 37°57' E 023°39'0 0.0
2016-Jun-30 15:34N 37°57' E 023°39'2827.5
2016-Jun-30 14:33N 37°30' E 023°26'9 3.8
2016-Jun-30 12:10N 37°21' E 023°26'813.2
2016-Jun-30 11:33N 37°30' E 023°28'2121.3
2016-Jun-30 10:33N 37°50' E 023°36'7 7.1
2016-Jun-30 09:33N 37°57' E 023°39'2424.3
2016-Jun-30 08:33N 37°33' E 023°34'6 2.7
2016-Jun-30 06:27N 37°27' E 023°33'3033.5
2016-Jun-30 05:33N 37°57' E 023°39'0 0.0
2016-Jun-30 04:34N 37°57' E 023°39'0 0.0
2016-Jun-30 03:33N 37°57' E 023°39'0 0.0
2016-Jun-30 02:33N 37°57' E 023°39'0 0.0
2016-Jun-30 01:33N 37°57' E 023°39'0 0.0
2016-Jun-30 00:33N 37°57' E 023°39'0 0.0
2016-Jun-29 23:33N 37°57' E 023°39'0 0.0
2016-Jun-29 22:33N 37°57' E 023°39'0 0.0
2016-Jun-29 21:33N 37°57' E 023°39'0 0.0
2016-Jun-29 20:33N 37°57' E 023°39'0 0.0
2016-Jun-29 19:33N 37°57' E 023°39'0 0.0
2016-Jun-29 18:33N 37°57' E 023°39'0 0.0
2016-Jun-29 17:33N 37°57' E 023°39'0 0.0
2016-Jun-29 16:33N 37°57' E 023°39'10 9.7
2016-Jun-29 15:33N 37°47' E 023°35'2423.1
2016-Jun-29 14:32N 37°24' E 023°31'5 2.1
2016-Jun-29 12:12N 37°22' E 023°25'812.8
2016-Jun-29 11:33N 37°29' E 023°29'2121.1
2016-Jun-29 10:34N 37°50' E 023°35'7 7.3
2016-Jun-29 09:33N 37°57' E 023°39'2926.3
2016-Jun-29 08:27N 37°28' E 023°33'8 3.5
2016-Jun-29 06:13N 37°35' E 023°34'2232.7
2016-Jun-29 05:34N 37°57' E 023°38'0 0.1
2016-Jun-29 04:31N 37°57' E 023°39'0 0.0
2016-Jun-29 03:28N 37°57' E 023°39'0 0.0
2016-Jun-29 02:28N 37°57' E 023°39'0 0.0
2016-Jun-29 01:31N 37°57' E 023°39'0 0.0
2016-Jun-29 00:31N 37°57' E 023°39'0 0.0
2016-Jun-28 23:31N 37°57' E 023°39'0 0.0
2016-Jun-28 22:31N 37°57' E 023°39'0 0.0
2016-Jun-28 21:28N 37°57' E 023°39'0 0.0
2016-Jun-28 20:31N 37°57' E 023°39'0 0.0
2016-Jun-28 19:31N 37°57' E 023°39'0 0.0
2016-Jun-28 18:31N 37°57' E 023°39'0 0.0
2016-Jun-28 17:31N 37°57' E 023°39'0 0.0
2016-Jun-28 16:31N 37°57' E 023°39'0 0.0
2016-Jun-28 15:33N 37°57' E 023°39'2827.2
2016-Jun-28 14:31N 37°30' E 023°27'8 3.6
2016-Jun-28 12:12N 37°22' E 023°25'812.8
2016-Jun-28 11:33N 37°30' E 023°28'2221.6
2016-Jun-28 10:34N 37°50' E 023°36'7 6.6
2016-Jun-28 09:34N 37°57' E 023°39'2625.7
2016-Jun-28 08:33N 37°31' E 023°34'4 1.6
2016-Jun-28 06:14N 37°35' E 023°34'2212.9
2016-Jun-28 04:30N 37°57' E 023°39'0 0.0
2016-Jun-27 23:06N 37°57' E 023°39'0 0.0
2016-Jun-27 22:27N 37°57' E 023°39'0 0.0
2016-Jun-27 21:33N 37°57' E 023°39'0 0.0
2016-Jun-27 20:33N 37°57' E 023°39'0 0.0
2016-Jun-27 19:33N 37°57' E 023°39'0 0.0
2016-Jun-27 18:33N 37°57' E 023°39'0 0.0
2016-Jun-27 17:33N 37°57' E 023°39'0 0.0
2016-Jun-27 16:30N 37°57' E 023°39'0 0.0
2016-Jun-27 15:34N 37°57' E 023°39'2827.6
2016-Jun-27 14:32N 37°30' E 023°27'9 3.6
2016-Jun-27 12:12N 37°22' E 023°25'812.4
2016-Jun-27 11:33N 37°29' E 023°30'2222.0
2016-Jun-27 10:33N 37°50' E 023°36'7 6.7
2016-Jun-27 09:33N 37°57' E 023°39'2525.2
2016-Jun-27 08:33N 37°32' E 023°34'3 1.2
2016-Jun-27 06:14N 37°35' E 023°34'2233.0
2016-Jun-27 05:33N 37°57' E 023°38'0 0.2
2016-Jun-27 04:27N 37°57' E 023°39'0 0.0
2016-Jun-27 03:33N 37°57' E 023°39'0 0.0
2016-Jun-27 02:33N 37°57' E 023°39'0 0.0
2016-Jun-27 01:33N 37°57' E 023°39'0 0.0
2016-Jun-27 00:33N 37°57' E 023°39'0 0.0
2016-Jun-26 23:33N 37°57' E 023°39'0 0.0
2016-Jun-26 22:33N 37°57' E 023°39'0 0.0
2016-Jun-26 21:33N 37°57' E 023°39'0 0.0
2016-Jun-26 20:33N 37°57' E 023°39'0 0.0
2016-Jun-26 19:33N 37°57' E 023°39'6 6.5
2016-Jun-26 18:33N 37°51' E 023°35'3029.4
2016-Jun-26 17:32N 37°21' E 023°28'2010.1
2016-Jun-26 15:33N 37°40' E 023°35'1716.5
2016-Jun-26 14:33N 37°57' E 023°39'2623.3
2016-Jun-26 13:26N 37°32' E 023°26'5 1.7
2016-Jun-26 10:19N 37°29' E 023°30'1316.9
2016-Jun-26 09:33N 37°42' E 023°32'1615.7
2016-Jun-26 08:32N 37°57' E 023°39'0 0.0
2016-Jun-26 07:32N 37°57' E 023°39'0 0.0
2016-Jun-26 06:32N 37°57' E 023°39'0 0.0
2016-Jun-26 05:32N 37°57' E 023°39'0 0.0
2016-Jun-26 04:32N 37°57' E 023°39'0 0.0
2016-Jun-26 03:32N 37°57' E 023°39'0 0.0
2016-Jun-26 02:32N 37°57' E 023°39'0 0.0
2016-Jun-26 01:32N 37°57' E 023°39'0 0.0
2016-Jun-26 00:32N 37°57' E 023°39'0 0.0
2016-Jun-25 23:32N 37°57' E 023°39'0 0.0
2016-Jun-25 22:32N 37°57' E 023°39'0 0.0
2016-Jun-25 21:32N 37°57' E 023°39'0 0.0
2016-Jun-25 20:32N 37°57' E 023°39'0 0.0
2016-Jun-25 19:32N 37°57' E 023°39'0 0.0
2016-Jun-25 18:32N 37°57' E 023°39'0 0.0
2016-Jun-25 17:29N 37°57' E 023°39'0 0.0
2016-Jun-25 16:29N 37°57' E 023°39'0 0.0
2016-Jun-25 15:33N 37°57' E 023°39'2827.7
2016-Jun-25 14:33N 37°30' E 023°27'7 2.2
2016-Jun-25 11:12N 37°35' E 023°33'2233.8
2016-Jun-25 10:33N 37°57' E 023°38'0 0.2
2016-Jun-25 09:33N 37°57' E 023°39'2925.9
2016-Jun-25 08:27N 37°28' E 023°33'8 3.5
2016-Jun-25 06:10N 37°36' E 023°33'2134.0
2016-Jun-25 05:33N 37°56' E 023°38'0 0.4
2016-Jun-25 04:33N 37°57' E 023°39'0 0.0
2016-Jun-25 03:33N 37°57' E 023°39'0 0.0
2016-Jun-25 02:30N 37°57' E 023°39'0 0.0
2016-Jun-25 01:33N 37°57' E 023°39'0 0.0
2016-Jun-25 00:30N 37°57' E 023°39'0 0.0
2016-Jun-24 23:33N 37°57' E 023°39'0 0.0
2016-Jun-24 22:30N 37°57' E 023°39'0 0.0
2016-Jun-24 21:30N 37°57' E 023°39'0 0.0
2016-Jun-24 20:33N 37°57' E 023°39'0 0.0
2016-Jun-24 19:30N 37°57' E 023°39'8 9.0
2016-Jun-24 18:34N 37°48' E 023°36'13 3.9
2016-Jun-24 15:12N 37°36' E 023°33'2133.4
2016-Jun-24 14:33N 37°57' E 023°38'0 0.3
2016-Jun-24 13:33N 37°57' E 023°39'2827.3
2016-Jun-24 12:32N 37°30' E 023°27'2 1.9
2016-Jun-24 11:18N 37°29' E 023°29'1418.3
2016-Jun-24 10:33N 37°43' E 023°33'1514.7
2016-Jun-24 09:33N 37°57' E 023°39'0 0.0
2016-Jun-24 08:32N 37°57' E 023°39'0 0.0
2016-Jun-24 07:29N 37°57' E 023°39'0 0.0
2016-Jun-24 04:32N 37°57' E 023°39'0 0.0
2016-Jun-24 03:32N 37°57' E 023°39'0 0.0
2016-Jun-24 02:20N 37°57' E 023°39'0 0.0
2016-Jun-24 01:32N 37°57' E 023°39'0 0.0
2016-Jun-24 00:32N 37°57' E 023°39'0 0.0
2016-Jun-23 23:32N 37°57' E 023°39'0 0.0
2016-Jun-23 22:32N 37°57' E 023°39'0 0.0
2016-Jun-23 21:32N 37°57' E 023°39'0 0.0
2016-Jun-23 20:29N 37°57' E 023°39'0 0.0
2016-Jun-23 19:32N 37°57' E 023°39'0 0.0
2016-Jun-23 18:32N 37°57' E 023°39'0 0.0
2016-Jun-23 17:32N 37°57' E 023°39'0 0.0
2016-Jun-23 16:32N 37°57' E 023°39'0 0.0
2016-Jun-23 15:33N 37°57' E 023°39'2827.5
2016-Jun-23 14:33N 37°30' E 023°26'9 3.8
2016-Jun-23 12:09N 37°21' E 023°27'813.8
2016-Jun-23 11:33N 37°30' E 023°28'2121.5
2016-Jun-23 10:34N 37°50' E 023°36'7 6.8
2016-Jun-23 09:33N 37°57' E 023°39'3126.9
2016-Jun-23 08:25N 37°26' E 023°33'3110.7
2016-Jun-23 05:34N 37°57' E 023°39'0 0.0
2016-Jun-23 04:33N 37°57' E 023°39'0 0.0
2016-Jun-23 03:33N 37°57' E 023°39'0 0.0
2016-Jun-23 02:33N 37°57' E 023°39'0 0.0
2016-Jun-23 01:33N 37°57' E 023°39'0 0.0
2016-Jun-23 00:27N 37°57' E 023°39'0 0.0
2016-Jun-22 23:33N 37°57' E 023°39'0 0.0
2016-Jun-22 22:33N 37°57' E 023°39'0 0.0
2016-Jun-22 21:30N 37°57' E 023°39'0 0.0
2016-Jun-22 20:30N 37°57' E 023°39'0 0.0
2016-Jun-22 19:33N 37°57' E 023°39'0 0.0
2016-Jun-22 18:33N 37°57' E 023°39'0 0.0
2016-Jun-22 17:33N 37°57' E 023°39'0 0.0
2016-Jun-22 16:33N 37°57' E 023°39'1 0.7
2016-Jun-22 15:33N 37°56' E 023°38'2827.7
2016-Jun-22 14:33N 37°30' E 023°27'1111.0
2016-Jun-22 13:32N 37°20' E 023°22'3 2.7
2016-Jun-22 12:15N 37°23' E 023°24'811.2
2016-Jun-22 11:33N 37°29' E 023°29'2121.1
2016-Jun-22 10:33N 37°50' E 023°35'7 7.3
2016-Jun-22 09:33N 37°57' E 023°39'2926.9
2016-Jun-22 08:29N 37°28' E 023°33'13 9.3
2016-Jun-22 07:04N 37°19' E 023°21'2022.7
2016-Jun-22 06:09N 37°37' E 023°34'2032.9
2016-Jun-22 05:34N 37°57' E 023°38'0 0.3
2016-Jun-22 04:33N 37°57' E 023°39'0 0.0
2016-Jun-22 03:32N 37°57' E 023°39'0 0.0
2016-Jun-22 02:32N 37°57' E 023°39'0 0.0
2016-Jun-22 01:32N 37°57' E 023°39'0 0.0
2016-Jun-22 00:29N 37°57' E 023°39'0 0.0
2016-Jun-21 23:32N 37°57' E 023°39'0 0.0
2016-Jun-21 22:32N 37°57' E 023°39'0 0.0
2016-Jun-21 21:26N 37°57' E 023°39'0 0.0
2016-Jun-21 20:32N 37°57' E 023°39'0 0.0
2016-Jun-21 19:32N 37°57' E 023°39'0 0.0
2016-Jun-21 18:32N 37°57' E 023°39'0 0.0
2016-Jun-21 17:32N 37°57' E 023°39'0 0.0
2016-Jun-21 16:32N 37°57' E 023°39'0 0.0
2016-Jun-21 15:33N 37°57' E 023°39'2827.2
2016-Jun-21 14:31N 37°30' E 023°27'8 3.6
2016-Jun-21 12:10N 37°22' E 023°26'813.3
2016-Jun-21 11:33N 37°29' E 023°29'2522.4
2016-Jun-21 10:28N 37°53' E 023°36'4 3.8
2016-Jun-21 09:33N 37°56' E 023°38'18 5.2
2016-Jun-21 06:06N 37°39' E 023°33'  

Dump ship's entire track history